sensor_id;sensor_type;location;lat;lon;timestamp;pressure;altitude;pressure_sealevel;temperature;humidity
63691;BME280;49837;57.280;27.070;2023-06-19T00:00:56;100357.2;;;17.75;61.65
63691;BME280;49837;57.280;27.070;2023-06-19T00:01:57;100356.47;;;17.74;61.66
63691;BME280;49837;57.280;27.070;2023-06-19T00:02:57;100358.83;;;17.72;61.37
63691;BME280;49837;57.280;27.070;2023-06-19T00:03:57;100355.06;;;17.68;60.82
63691;BME280;49837;57.280;27.070;2023-06-19T00:04:57;100353.78;;;17.71;61.26
63691;BME280;49837;57.280;27.070;2023-06-19T00:05:58;100358.48;;;17.69;61.7
63691;BME280;49837;57.280;27.070;2023-06-19T00:07:00;100356.37;;;17.64;61.95
63691;BME280;49837;57.280;27.070;2023-06-19T00:07:59;100354.8;;;17.61;61.77
63691;BME280;49837;57.280;27.070;2023-06-19T00:08:59;100358.79;;;17.6;62.33
63691;BME280;49837;57.280;27.070;2023-06-19T00:09:59;100358.56;;;17.58;61.87
63691;BME280;49837;57.280;27.070;2023-06-19T00:11:00;100353.11;;;17.56;61.93
63691;BME280;49837;57.280;27.070;2023-06-19T00:12:00;100352.98;;;17.57;61.74
63691;BME280;49837;57.280;27.070;2023-06-19T00:13:01;100354.38;;;17.59;61.73
63691;BME280;49837;57.280;27.070;2023-06-19T00:14:01;100354.61;;;17.54;61.81
63691;BME280;49837;57.280;27.070;2023-06-19T00:15:01;100353.32;;;17.54;61.66
63691;BME280;49837;57.280;27.070;2023-06-19T00:16:02;100355.36;;;17.57;61.15
63691;BME280;49837;57.280;27.070;2023-06-19T00:17:03;100354.3;;;17.59;61.2
63691;BME280;49837;57.280;27.070;2023-06-19T00:18:03;100356.98;;;17.61;61.0
63691;BME280;49837;57.280;27.070;2023-06-19T00:19:03;100353.2;;;17.62;61.02
63691;BME280;49837;57.280;27.070;2023-06-19T00:20:04;100351.03;;;17.63;61.12
63691;BME280;49837;57.280;27.070;2023-06-19T00:21:04;100348.55;;;17.63;60.99
63691;BME280;49837;57.280;27.070;2023-06-19T00:22:05;100352.09;;;17.59;61.65
63691;BME280;49837;57.280;27.070;2023-06-19T00:23:04;100353.15;;;17.6;60.7
63691;BME280;49837;57.280;27.070;2023-06-19T00:24:05;100353.67;;;17.58;61.11
63691;BME280;49837;57.280;27.070;2023-06-19T00:25:06;100353.73;;;17.6;61.05
63691;BME280;49837;57.280;27.070;2023-06-19T00:26:06;100355.13;;;17.51;61.45
63691;BME280;49837;57.280;27.070;2023-06-19T00:27:06;100354.68;;;17.46;61.83
63691;BME280;49837;57.280;27.070;2023-06-19T00:28:06;100355.52;;;17.45;61.87
63691;BME280;49837;57.280;27.070;2023-06-19T00:29:07;100353.11;;;17.41;61.42
63691;BME280;49837;57.280;27.070;2023-06-19T00:30:08;100356.03;;;17.43;61.59
63691;BME280;49837;57.280;27.070;2023-06-19T00:31:07;100358.37;;;17.39;61.26
63691;BME280;49837;57.280;27.070;2023-06-19T00:32:08;100355.63;;;17.44;60.79
63691;BME280;49837;57.280;27.070;2023-06-19T00:33:08;100355.42;;;17.46;60.23
63691;BME280;49837;57.280;27.070;2023-06-19T00:34:09;100352.54;;;17.47;60.7
63691;BME280;49837;57.280;27.070;2023-06-19T00:35:09;100349.11;;;17.42;61.1
63691;BME280;49837;57.280;27.070;2023-06-19T00:36:10;100349.67;;;17.42;61.19
63691;BME280;49837;57.280;27.070;2023-06-19T00:37:10;100347.98;;;17.39;61.37
63691;BME280;49837;57.280;27.070;2023-06-19T00:38:11;100348.08;;;17.33;61.47
63691;BME280;49837;57.280;27.070;2023-06-19T00:39:11;100347.47;;;17.3;61.67
63691;BME280;49837;57.280;27.070;2023-06-19T00:41:12;100348.77;;;17.25;61.51
63691;BME280;49837;57.280;27.070;2023-06-19T00:42:12;100349.88;;;17.23;61.38
63691;BME280;49837;57.280;27.070;2023-06-19T00:43:12;100351.45;;;17.23;61.51
63691;BME280;49837;57.280;27.070;2023-06-19T00:44:13;100352.84;;;17.18;61.92
63691;BME280;49837;57.280;27.070;2023-06-19T00:45:13;100352.38;;;17.16;62.12
63691;BME280;49837;57.280;27.070;2023-06-19T00:46:14;100352.61;;;17.13;62.38
63691;BME280;49837;57.280;27.070;2023-06-19T00:47:14;100354.47;;;17.08;62.38
63691;BME280;49837;57.280;27.070;2023-06-19T00:48:15;100353.21;;;17.03;62.19
63691;BME280;49837;57.280;27.070;2023-06-19T00:49:15;100354.39;;;17.0;62.08
63691;BME280;49837;57.280;27.070;2023-06-19T00:50:15;100353.16;;;17.03;61.39
63691;BME280;49837;57.280;27.070;2023-06-19T00:51:16;100351.42;;;17.05;61.17
63691;BME280;49837;57.280;27.070;2023-06-19T00:52:16;100351.16;;;17.07;61.64
63691;BME280;49837;57.280;27.070;2023-06-19T00:53:17;100348.78;;;17.02;62.22
63691;BME280;49837;57.280;27.070;2023-06-19T00:54:17;100348.45;;;16.95;62.19
63691;BME280;49837;57.280;27.070;2023-06-19T00:55:18;100351.39;;;16.88;62.65
63691;BME280;49837;57.280;27.070;2023-06-19T00:56:18;100353.48;;;16.88;62.53
63691;BME280;49837;57.280;27.070;2023-06-19T00:57:18;100354.72;;;16.9;62.64
63691;BME280;49837;57.280;27.070;2023-06-19T00:58:20;100354.33;;;16.9;61.48
63691;BME280;49837;57.280;27.070;2023-06-19T00:59:19;100354.44;;;16.92;62.0
63691;BME280;49837;57.280;27.070;2023-06-19T01:00:19;100360.12;;;16.93;62.14
63691;BME280;49837;57.280;27.070;2023-06-19T01:01:21;100360.67;;;16.89;62.01
63691;BME280;49837;57.280;27.070;2023-06-19T01:02:20;100357.34;;;16.85;61.82
63691;BME280;49837;57.280;27.070;2023-06-19T01:03:21;100356.33;;;16.84;62.28
63691;BME280;49837;57.280;27.070;2023-06-19T01:04:21;100357.45;;;16.81;62.36
63691;BME280;49837;57.280;27.070;2023-06-19T01:05:22;100361.41;;;16.75;62.3
63691;BME280;49837;57.280;27.070;2023-06-19T01:06:24;100354.74;;;16.75;62.34
63691;BME280;49837;57.280;27.070;2023-06-19T01:09:34;100360.48;;;16.79;61.86
63691;BME280;49837;57.280;27.070;2023-06-19T01:10:42;100358.35;;;16.78;62.04
63691;BME280;49837;57.280;27.070;2023-06-19T01:11:43;100355.28;;;16.73;61.76
63691;BME280;49837;57.280;27.070;2023-06-19T01:12:44;100358.38;;;16.75;62.27
63691;BME280;49837;57.280;27.070;2023-06-19T01:13:47;100358.89;;;16.77;61.82
63691;BME280;49837;57.280;27.070;2023-06-19T01:14:50;100354.28;;;16.71;62.24
63691;BME280;49837;57.280;27.070;2023-06-19T01:15:44;100352.2;;;16.72;61.62
63691;BME280;49837;57.280;27.070;2023-06-19T01:16:44;100352.59;;;16.73;61.6
63691;BME280;49837;57.280;27.070;2023-06-19T01:17:45;100350.97;;;16.73;61.92
63691;BME280;49837;57.280;27.070;2023-06-19T01:18:45;100353.1;;;16.75;61.88
63691;BME280;49837;57.280;27.070;2023-06-19T01:19:45;100357.7;;;16.69;62.23
63691;BME280;49837;57.280;27.070;2023-06-19T01:20:46;100353.84;;;16.64;62.38
63691;BME280;49837;57.280;27.070;2023-06-19T01:21:47;100353.67;;;16.62;62.39
63691;BME280;49837;57.280;27.070;2023-06-19T01:22:47;100352.82;;;16.61;62.49
63691;BME280;49837;57.280;27.070;2023-06-19T01:23:47;100354.73;;;16.59;62.33
63691;BME280;49837;57.280;27.070;2023-06-19T01:24:48;100352.22;;;16.62;62.51
63691;BME280;49837;57.280;27.070;2023-06-19T01:25:48;100351.64;;;16.61;61.45
63691;BME280;49837;57.280;27.070;2023-06-19T01:26:49;100354.39;;;16.6;62.38
63691;BME280;49837;57.280;27.070;2023-06-19T01:27:49;100350.77;;;16.62;62.01
63691;BME280;49837;57.280;27.070;2023-06-19T01:28:50;100350.48;;;16.61;61.92
63691;BME280;49837;57.280;27.070;2023-06-19T01:29:50;100350.63;;;16.61;61.95
63691;BME280;49837;57.280;27.070;2023-06-19T01:30:51;100356.31;;;16.65;61.44
63691;BME280;49837;57.280;27.070;2023-06-19T01:33:00;100357.62;;;16.65;61.99
63691;BME280;49837;57.280;27.070;2023-06-19T01:33:56;100355.88;;;16.65;61.84
63691;BME280;49837;57.280;27.070;2023-06-19T01:34:57;100358.83;;;16.58;62.12
63691;BME280;49837;57.280;27.070;2023-06-19T01:35:57;100356.92;;;16.58;61.91
63691;BME280;49837;57.280;27.070;2023-06-19T01:36:57;100355.97;;;16.58;61.93
63691;BME280;49837;57.280;27.070;2023-06-19T01:37:58;100361.25;;;16.64;61.61
63691;BME280;49837;57.280;27.070;2023-06-19T01:38:58;100359.16;;;16.68;61.15
63691;BME280;49837;57.280;27.070;2023-06-19T01:39:59;100360.92;;;16.65;61.59
63691;BME280;49837;57.280;27.070;2023-06-19T01:40:59;100362.09;;;16.61;61.87
63691;BME280;49837;57.280;27.070;2023-06-19T01:42:00;100361.37;;;16.59;61.9
63691;BME280;49837;57.280;27.070;2023-06-19T01:43:00;100366.3;;;16.59;62.0
63691;BME280;49837;57.280;27.070;2023-06-19T01:44:00;100361.25;;;16.58;62.01
63691;BME280;49837;57.280;27.070;2023-06-19T01:45:01;100365.05;;;16.58;61.75
63691;BME280;49837;57.280;27.070;2023-06-19T01:46:01;100366.85;;;16.6;61.46
63691;BME280;49837;57.280;27.070;2023-06-19T01:47:11;100362.83;;;16.62;61.78
63691;BME280;49837;57.280;27.070;2023-06-19T01:48:04;100360.73;;;16.7;61.27
63691;BME280;49837;57.280;27.070;2023-06-19T01:49:08;100364.55;;;16.7;61.57
63691;BME280;49837;57.280;27.070;2023-06-19T01:50:07;100364.81;;;16.64;62.15
63691;BME280;49837;57.280;27.070;2023-06-19T01:51:06;100360.47;;;16.64;62.19
63691;BME280;49837;57.280;27.070;2023-06-19T01:52:07;100360.98;;;16.63;62.31
63691;BME280;49837;57.280;27.070;2023-06-19T01:53:08;100362.0;;;16.67;62.53
63691;BME280;49837;57.280;27.070;2023-06-19T01:54:07;100363.14;;;16.69;62.13
63691;BME280;49837;57.280;27.070;2023-06-19T01:55:08;100361.95;;;16.64;61.54
63691;BME280;49837;57.280;27.070;2023-06-19T01:56:08;100357.82;;;16.73;61.55
63691;BME280;49837;57.280;27.070;2023-06-19T01:57:09;100359.34;;;16.75;61.46
63691;BME280;49837;57.280;27.070;2023-06-19T01:58:09;100359.95;;;16.71;62.09
63691;BME280;49837;57.280;27.070;2023-06-19T01:59:10;100362.98;;;16.72;62.36
63691;BME280;49837;57.280;27.070;2023-06-19T02:00:11;100360.27;;;16.69;62.03
63691;BME280;49837;57.280;27.070;2023-06-19T02:01:11;100359.67;;;16.71;61.98
63691;BME280;49837;57.280;27.070;2023-06-19T02:02:11;100355.8;;;16.71;61.98
63691;BME280;49837;57.280;27.070;2023-06-19T02:03:12;100357.52;;;16.69;62.14
63691;BME280;49837;57.280;27.070;2023-06-19T02:04:12;100356.17;;;16.69;61.96
63691;BME280;49837;57.280;27.070;2023-06-19T02:05:13;100357.58;;;16.69;62.24
63691;BME280;49837;57.280;27.070;2023-06-19T02:06:13;100355.79;;;16.73;61.92
63691;BME280;49837;57.280;27.070;2023-06-19T02:07:13;100359.77;;;16.68;61.8
63691;BME280;49837;57.280;27.070;2023-06-19T02:08:14;100356.34;;;16.67;62.3
63691;BME280;49837;57.280;27.070;2023-06-19T02:09:14;100358.05;;;16.73;62.25
63691;BME280;49837;57.280;27.070;2023-06-19T02:10:15;100359.03;;;16.69;62.16
63691;BME280;49837;57.280;27.070;2023-06-19T02:11:15;100358.66;;;16.68;62.26
63691;BME280;49837;57.280;27.070;2023-06-19T02:12:16;100357.42;;;16.69;62.17
63691;BME280;49837;57.280;27.070;2023-06-19T02:13:16;100358.02;;;16.69;62.39
63691;BME280;49837;57.280;27.070;2023-06-19T02:14:17;100357.19;;;16.69;62.08
63691;BME280;49837;57.280;27.070;2023-06-19T02:15:17;100356.52;;;16.7;61.79
63691;BME280;49837;57.280;27.070;2023-06-19T02:16:17;100358.38;;;16.72;62.0
63691;BME280;49837;57.280;27.070;2023-06-19T02:17:18;100361.58;;;16.73;62.08
63691;BME280;49837;57.280;27.070;2023-06-19T02:18:18;100361.7;;;16.73;61.92
63691;BME280;49837;57.280;27.070;2023-06-19T02:19:19;100359.0;;;16.75;61.58
63691;BME280;49837;57.280;27.070;2023-06-19T02:20:19;100358.45;;;16.79;61.68
63691;BME280;49837;57.280;27.070;2023-06-19T02:21:20;100358.67;;;16.81;60.87
63691;BME280;49837;57.280;27.070;2023-06-19T02:22:20;100356.88;;;16.83;61.2
63691;BME280;49837;57.280;27.070;2023-06-19T02:23:21;100357.66;;;16.79;60.97
63691;BME280;49837;57.280;27.070;2023-06-19T02:24:21;100359.23;;;16.78;61.29
63691;BME280;49837;57.280;27.070;2023-06-19T02:25:22;100353.34;;;16.73;61.41
63691;BME280;49837;57.280;27.070;2023-06-19T02:26:22;100353.66;;;16.7;61.62
63691;BME280;49837;57.280;27.070;2023-06-19T02:27:23;100352.09;;;16.71;61.97
63691;BME280;49837;57.280;27.070;2023-06-19T02:28:23;100349.4;;;16.75;61.73
63691;BME280;49837;57.280;27.070;2023-06-19T02:29:23;100349.27;;;16.7;62.33
63691;BME280;49837;57.280;27.070;2023-06-19T02:30:24;100347.1;;;16.73;61.77
63691;BME280;49837;57.280;27.070;2023-06-19T02:31:24;100350.8;;;16.72;62.1
63691;BME280;49837;57.280;27.070;2023-06-19T02:32:25;100352.53;;;16.71;62.3
63691;BME280;49837;57.280;27.070;2023-06-19T02:33:25;100352.58;;;16.7;62.49
63691;BME280;49837;57.280;27.070;2023-06-19T02:34:26;100352.7;;;16.69;62.62
63691;BME280;49837;57.280;27.070;2023-06-19T02:35:26;100351.14;;;16.72;62.52
63691;BME280;49837;57.280;27.070;2023-06-19T02:36:27;100352.31;;;16.7;62.58
63691;BME280;49837;57.280;27.070;2023-06-19T02:37:27;100352.59;;;16.75;62.53
63691;BME280;49837;57.280;27.070;2023-06-19T02:38:28;100350.8;;;16.72;61.89
63691;BME280;49837;57.280;27.070;2023-06-19T02:39:29;100354.56;;;16.76;61.78
63691;BME280;49837;57.280;27.070;2023-06-19T02:40:28;100354.56;;;16.76;61.31
63691;BME280;49837;57.280;27.070;2023-06-19T02:41:29;100353.41;;;16.78;61.44
63691;BME280;49837;57.280;27.070;2023-06-19T02:42:29;100354.8;;;16.77;61.43
63691;BME280;49837;57.280;27.070;2023-06-19T02:43:30;100353.58;;;16.78;61.38
63691;BME280;49837;57.280;27.070;2023-06-19T02:44:30;100358.35;;;16.8;61.62
63691;BME280;49837;57.280;27.070;2023-06-19T02:45:31;100359.02;;;16.79;61.52
63691;BME280;49837;57.280;27.070;2023-06-19T02:46:31;100359.0;;;16.78;61.11
63691;BME280;49837;57.280;27.070;2023-06-19T02:47:32;100358.41;;;16.8;60.88
63691;BME280;49837;57.280;27.070;2023-06-19T02:48:32;100355.98;;;16.79;61.02
63691;BME280;49837;57.280;27.070;2023-06-19T02:49:32;100354.09;;;16.86;60.92
63691;BME280;49837;57.280;27.070;2023-06-19T02:50:33;100359.64;;;16.79;60.4
63691;BME280;49837;57.280;27.070;2023-06-19T02:51:33;100357.22;;;16.81;60.57
63691;BME280;49837;57.280;27.070;2023-06-19T02:52:34;100356.06;;;16.84;60.66
63691;BME280;49837;57.280;27.070;2023-06-19T02:53:34;100357.41;;;16.87;60.65
63691;BME280;49837;57.280;27.070;2023-06-19T02:54:35;100354.17;;;16.89;60.71
63691;BME280;49837;57.280;27.070;2023-06-19T02:55:35;100357.03;;;16.93;60.37
63691;BME280;49837;57.280;27.070;2023-06-19T02:56:36;100358.25;;;16.99;60.15
63691;BME280;49837;57.280;27.070;2023-06-19T02:57:36;100357.2;;;17.02;59.77
63691;BME280;49837;57.280;27.070;2023-06-19T02:58:36;100350.3;;;17.02;59.7
63691;BME280;49837;57.280;27.070;2023-06-19T02:59:37;100351.36;;;17.03;59.86
63691;BME280;49837;57.280;27.070;2023-06-19T03:00:37;100353.38;;;17.01;60.1
63691;BME280;49837;57.280;27.070;2023-06-19T03:01:38;100350.45;;;17.06;59.78
63691;BME280;49837;57.280;27.070;2023-06-19T03:02:38;100346.58;;;17.03;60.21
63691;BME280;49837;57.280;27.070;2023-06-19T03:03:39;100347.05;;;17.1;59.69
63691;BME280;49837;57.280;27.070;2023-06-19T03:04:39;100343.3;;;17.15;60.06
63691;BME280;49837;57.280;27.070;2023-06-19T03:05:39;100343.64;;;17.24;60.0
63691;BME280;49837;57.280;27.070;2023-06-19T03:06:40;100346.75;;;17.23;59.66
63691;BME280;49837;57.280;27.070;2023-06-19T03:07:40;100341.84;;;17.3;59.71
63691;BME280;49837;57.280;27.070;2023-06-19T03:08:41;100338.93;;;17.35;59.47
63691;BME280;49837;57.280;27.070;2023-06-19T03:09:41;100342.09;;;17.48;59.0
63691;BME280;49837;57.280;27.070;2023-06-19T03:10:41;100341.52;;;17.51;59.07
63691;BME280;49837;57.280;27.070;2023-06-19T03:11:42;100343.83;;;17.46;58.94
63691;BME280;49837;57.280;27.070;2023-06-19T03:12:42;100338.16;;;17.46;59.05
63691;BME280;49837;57.280;27.070;2023-06-19T03:13:48;100339.34;;;17.53;58.62
63691;BME280;49837;57.280;27.070;2023-06-19T03:14:45;100344.11;;;17.63;59.05
63691;BME280;49837;57.280;27.070;2023-06-19T03:15:46;100338.59;;;17.73;58.61
63691;BME280;49837;57.280;27.070;2023-06-19T03:16:46;100344.5;;;17.67;58.16
63691;BME280;49837;57.280;27.070;2023-06-19T03:17:47;100339.82;;;17.76;58.5
63691;BME280;49837;57.280;27.070;2023-06-19T03:18:47;100340.69;;;17.95;58.43
63691;BME280;49837;57.280;27.070;2023-06-19T03:19:49;100343.36;;;18.0;58.22
63691;BME280;49837;57.280;27.070;2023-06-19T03:20:49;100349.86;;;17.94;58.04
63691;BME280;49837;57.280;27.070;2023-06-19T03:21:50;100341.34;;;17.72;57.83
63691;BME280;49837;57.280;27.070;2023-06-19T03:22:50;100337.41;;;17.74;58.08
63691;BME280;49837;57.280;27.070;2023-06-19T03:23:50;100342.28;;;17.87;57.96
63691;BME280;49837;57.280;27.070;2023-06-19T03:24:51;100341.78;;;17.91;57.8
63691;BME280;49837;57.280;27.070;2023-06-19T03:25:51;100342.0;;;17.96;57.98
63691;BME280;49837;57.280;27.070;2023-06-19T03:26:52;100338.52;;;17.73;58.11
63691;BME280;49837;57.280;27.070;2023-06-19T03:27:52;100342.47;;;17.79;58.57
63691;BME280;49837;57.280;27.070;2023-06-19T03:28:52;100341.05;;;17.86;58.95
63691;BME280;49837;57.280;27.070;2023-06-19T03:29:53;100342.11;;;17.93;57.85
63691;BME280;49837;57.280;27.070;2023-06-19T03:30:54;100339.63;;;18.03;57.72
63691;BME280;49837;57.280;27.070;2023-06-19T03:31:53;100339.47;;;18.06;57.94
63691;BME280;49837;57.280;27.070;2023-06-19T03:32:54;100341.3;;;18.16;57.86
63691;BME280;49837;57.280;27.070;2023-06-19T03:33:54;100343.48;;;18.25;57.62
63691;BME280;49837;57.280;27.070;2023-06-19T03:34:55;100341.59;;;18.34;57.37
63691;BME280;49837;57.280;27.070;2023-06-19T03:35:55;100339.95;;;18.47;56.89
63691;BME280;49837;57.280;27.070;2023-06-19T03:36:55;100340.98;;;18.47;57.44
63691;BME280;49837;57.280;27.070;2023-06-19T03:37:56;100340.34;;;18.36;57.75
63691;BME280;49837;57.280;27.070;2023-06-19T03:38:56;100340.97;;;18.29;57.71
63691;BME280;49837;57.280;27.070;2023-06-19T03:39:57;100340.13;;;18.27;58.47
63691;BME280;49837;57.280;27.070;2023-06-19T03:40:57;100337.89;;;18.28;58.3
63691;BME280;49837;57.280;27.070;2023-06-19T03:41:57;100337.09;;;18.1;58.48
63691;BME280;49837;57.280;27.070;2023-06-19T03:42:58;100337.62;;;18.01;58.58
63691;BME280;49837;57.280;27.070;2023-06-19T03:43:58;100335.75;;;18.04;58.89
63691;BME280;49837;57.280;27.070;2023-06-19T03:44:58;100333.66;;;18.07;58.96
63691;BME280;49837;57.280;27.070;2023-06-19T03:45:59;100338.36;;;18.17;58.8
63691;BME280;49837;57.280;27.070;2023-06-19T03:46:59;100333.97;;;18.37;58.84
63691;BME280;49837;57.280;27.070;2023-06-19T03:48:00;100333.77;;;18.62;56.9
63691;BME280;49837;57.280;27.070;2023-06-19T03:49:00;100334.53;;;19.01;56.6
63691;BME280;49837;57.280;27.070;2023-06-19T03:50:00;100335.02;;;19.28;55.48
63691;BME280;49837;57.280;27.070;2023-06-19T03:51:02;100334.77;;;19.23;55.84
63691;BME280;49837;57.280;27.070;2023-06-19T03:52:03;100334.73;;;19.35;56.21
63691;BME280;49837;57.280;27.070;2023-06-19T03:53:03;100333.67;;;19.04;56.06
63691;BME280;49837;57.280;27.070;2023-06-19T03:54:03;100337.08;;;18.85;56.29
63691;BME280;49837;57.280;27.070;2023-06-19T03:55:04;100334.69;;;18.78;56.46
63691;BME280;49837;57.280;27.070;2023-06-19T03:56:04;100334.44;;;18.92;56.41
63691;BME280;49837;57.280;27.070;2023-06-19T03:57:05;100334.05;;;18.98;56.04
63691;BME280;49837;57.280;27.070;2023-06-19T03:58:05;100337.6;;;19.03;56.51
63691;BME280;49837;57.280;27.070;2023-06-19T03:59:05;100335.28;;;19.2;55.39
63691;BME280;49837;57.280;27.070;2023-06-19T04:00:07;100334.59;;;19.16;55.62
63691;BME280;49837;57.280;27.070;2023-06-19T04:01:06;100336.56;;;19.17;55.96
63691;BME280;49837;57.280;27.070;2023-06-19T04:02:06;100335.12;;;19.2;55.89
63691;BME280;49837;57.280;27.070;2023-06-19T04:03:06;100334.7;;;19.02;56.28
63691;BME280;49837;57.280;27.070;2023-06-19T04:04:07;100331.15;;;18.95;56.55
63691;BME280;49837;57.280;27.070;2023-06-19T04:05:08;100329.49;;;18.8;57.34
63691;BME280;49837;57.280;27.070;2023-06-19T04:06:08;100330.06;;;18.89;57.0
63691;BME280;49837;57.280;27.070;2023-06-19T04:07:08;100326.66;;;18.72;57.49
63691;BME280;49837;57.280;27.070;2023-06-19T04:08:08;100329.94;;;18.8;57.74
63691;BME280;49837;57.280;27.070;2023-06-19T04:09:09;100326.8;;;18.69;58.08
63691;BME280;49837;57.280;27.070;2023-06-19T04:10:09;100323.62;;;18.48;58.17
63691;BME280;49837;57.280;27.070;2023-06-19T04:11:10;100326.44;;;18.35;58.47
63691;BME280;49837;57.280;27.070;2023-06-19T04:12:10;100331.11;;;18.23;58.39
63691;BME280;49837;57.280;27.070;2023-06-19T04:13:11;100328.72;;;18.2;58.36
63691;BME280;49837;57.280;27.070;2023-06-19T04:14:11;100327.78;;;18.34;58.58
63691;BME280;49837;57.280;27.070;2023-06-19T04:15:11;100327.38;;;18.39;58.64
63691;BME280;49837;57.280;27.070;2023-06-19T04:16:12;100329.39;;;18.29;58.81
63691;BME280;49837;57.280;27.070;2023-06-19T04:17:13;100330.52;;;18.28;58.74
63691;BME280;49837;57.280;27.070;2023-06-19T04:18:12;100326.55;;;18.19;59.04
63691;BME280;49837;57.280;27.070;2023-06-19T04:19:13;100327.87;;;18.25;58.82
63691;BME280;49837;57.280;27.070;2023-06-19T04:20:13;100324.71;;;18.3;58.7
63691;BME280;49837;57.280;27.070;2023-06-19T04:21:14;100325.66;;;18.36;58.93
63691;BME280;49837;57.280;27.070;2023-06-19T04:22:14;100323.62;;;18.35;59.12
63691;BME280;49837;57.280;27.070;2023-06-19T04:23:14;100322.3;;;18.43;58.68
63691;BME280;49837;57.280;27.070;2023-06-19T04:24:15;100323.46;;;18.46;59.08
63691;BME280;49837;57.280;27.070;2023-06-19T04:25:15;100325.29;;;18.53;58.86
63691;BME280;49837;57.280;27.070;2023-06-19T04:26:16;100323.54;;;18.55;58.84
63691;BME280;49837;57.280;27.070;2023-06-19T04:27:16;100328.68;;;18.66;58.8
63691;BME280;49837;57.280;27.070;2023-06-19T04:28:16;100325.0;;;18.55;58.81
63691;BME280;49837;57.280;27.070;2023-06-19T04:29:17;100327.25;;;18.56;59.01
63691;BME280;49837;57.280;27.070;2023-06-19T04:30:17;100324.78;;;18.54;59.25
63691;BME280;49837;57.280;27.070;2023-06-19T04:31:18;100325.48;;;18.46;58.6
63691;BME280;49837;57.280;27.070;2023-06-19T04:32:18;100325.96;;;18.44;58.92
63691;BME280;49837;57.280;27.070;2023-06-19T04:33:18;100324.59;;;18.47;58.87
63691;BME280;49837;57.280;27.070;2023-06-19T04:34:19;100324.3;;;18.46;58.64
63691;BME280;49837;57.280;27.070;2023-06-19T04:35:19;100327.8;;;18.47;58.98
63691;BME280;49837;57.280;27.070;2023-06-19T04:36:20;100328.09;;;18.45;59.01
63691;BME280;49837;57.280;27.070;2023-06-19T04:37:20;100327.27;;;18.52;58.76
63691;BME280;49837;57.280;27.070;2023-06-19T04:38:21;100328.63;;;18.61;58.95
63691;BME280;49837;57.280;27.070;2023-06-19T04:39:21;100329.53;;;18.72;59.19
63691;BME280;49837;57.280;27.070;2023-06-19T04:40:21;100334.39;;;18.78;58.87
63691;BME280;49837;57.280;27.070;2023-06-19T04:41:21;100335.81;;;18.86;59.19
63691;BME280;49837;57.280;27.070;2023-06-19T04:42:22;100333.13;;;18.82;58.52
63691;BME280;49837;57.280;27.070;2023-06-19T04:43:22;100333.7;;;18.91;58.65
63691;BME280;49837;57.280;27.070;2023-06-19T04:44:23;100336.03;;;18.9;58.43
63691;BME280;49837;57.280;27.070;2023-06-19T04:45:23;100334.84;;;18.91;58.29
63691;BME280;49837;57.280;27.070;2023-06-19T04:46:23;100335.48;;;18.89;58.2
63691;BME280;49837;57.280;27.070;2023-06-19T04:47:24;100337.27;;;18.87;58.62
63691;BME280;49837;57.280;27.070;2023-06-19T04:48:26;100333.92;;;19.07;58.31
63691;BME280;49837;57.280;27.070;2023-06-19T04:49:28;100335.88;;;19.19;58.15
63691;BME280;49837;57.280;27.070;2023-06-19T04:50:26;100335.92;;;19.34;57.54
63691;BME280;49837;57.280;27.070;2023-06-19T04:51:27;100337.32;;;19.52;57.32
63691;BME280;49837;57.280;27.070;2023-06-19T04:52:27;100339.59;;;19.56;57.05
63691;BME280;49837;57.280;27.070;2023-06-19T04:53:28;100336.89;;;19.61;57.56
63691;BME280;49837;57.280;27.070;2023-06-19T04:54:28;100335.81;;;19.62;57.99
63691;BME280;49837;57.280;27.070;2023-06-19T04:55:28;100333.73;;;19.42;57.53
63691;BME280;49837;57.280;27.070;2023-06-19T04:56:29;100337.28;;;19.42;57.65
63691;BME280;49837;57.280;27.070;2023-06-19T04:57:29;100338.66;;;19.4;57.59
63691;BME280;49837;57.280;27.070;2023-06-19T04:58:30;100338.53;;;19.39;57.59
63691;BME280;49837;57.280;27.070;2023-06-19T04:59:30;100338.7;;;19.38;58.04
63691;BME280;49837;57.280;27.070;2023-06-19T05:00:30;100338.94;;;19.38;58.32
63691;BME280;49837;57.280;27.070;2023-06-19T05:01:31;100337.59;;;19.3;57.94
63691;BME280;49837;57.280;27.070;2023-06-19T05:02:31;100335.84;;;19.32;57.9
63691;BME280;49837;57.280;27.070;2023-06-19T05:03:32;100334.85;;;19.42;58.14
63691;BME280;49837;57.280;27.070;2023-06-19T05:04:32;100332.52;;;19.46;57.92
63691;BME280;49837;57.280;27.070;2023-06-19T05:05:32;100333.36;;;19.45;58.99
63691;BME280;49837;57.280;27.070;2023-06-19T05:06:33;100330.96;;;19.42;58.93
63691;BME280;49837;57.280;27.070;2023-06-19T05:07:33;100329.42;;;19.5;58.63
63691;BME280;49837;57.280;27.070;2023-06-19T05:08:34;100327.8;;;19.43;58.07
63691;BME280;49837;57.280;27.070;2023-06-19T05:09:34;100325.03;;;19.44;58.13
63691;BME280;49837;57.280;27.070;2023-06-19T05:10:34;100325.73;;;19.6;58.07
63691;BME280;49837;57.280;27.070;2023-06-19T05:11:35;100322.58;;;19.84;57.62
63691;BME280;49837;57.280;27.070;2023-06-19T05:12:35;100325.16;;;19.87;57.49
63691;BME280;49837;57.280;27.070;2023-06-19T05:13:36;100325.4;;;19.79;58.19
63691;BME280;49837;57.280;27.070;2023-06-19T05:14:36;100331.84;;;19.83;58.08
63691;BME280;49837;57.280;27.070;2023-06-19T05:15:36;100327.32;;;19.98;57.5
63691;BME280;49837;57.280;27.070;2023-06-19T05:16:37;100327.63;;;20.12;56.89
63691;BME280;49837;57.280;27.070;2023-06-19T05:17:37;100327.2;;;20.29;57.43